createdAt,value
2023-04-02T00:01:23.602Z,8.88
2023-04-02T00:03:54.132Z,8.76
2023-04-02T00:06:44.944Z,8.59
2023-04-02T00:09:14.877Z,8.66
2023-04-02T00:11:49.587Z,8.62
2023-04-02T00:14:24.443Z,8.60
2023-04-02T00:16:52.830Z,8.53
2023-04-02T00:19:32.578Z,8.73
2023-04-02T00:22:00.659Z,8.73
2023-04-02T00:24:27.201Z,8.57
2023-04-02T00:26:55.279Z,8.49
2023-04-02T00:29:22.478Z,8.56
2023-04-02T00:31:51.680Z,8.76
2023-04-02T00:34:25.922Z,8.80
2023-04-02T00:36:52.553Z,8.78
2023-04-02T00:39:24.082Z,8.86
2023-04-02T00:42:05.314Z,8.56
2023-04-02T00:44:37.877Z,8.68
2023-04-02T00:47:17.453Z,8.75
2023-04-02T00:49:44.080Z,8.61
2023-04-02T00:52:14.468Z,8.70
2023-04-02T00:54:49.714Z,8.62
2023-04-02T00:57:25.624Z,8.61
2023-04-02T01:00:20.659Z,8.64
2023-04-02T01:03:18.276Z,8.54
2023-04-02T01:05:48.278Z,8.45
2023-04-02T01:08:43.013Z,8.47
2023-04-02T01:11:30.802Z,8.36
2023-04-02T01:14:25.688Z,8.41
2023-04-02T01:17:30.590Z,8.51
2023-04-02T01:20:30.013Z,8.51
2023-04-02T01:22:59.491Z,8.52
2023-04-02T01:25:35.950Z,8.66
2023-04-02T01:28:14.933Z,8.56
2023-04-02T01:30:45.648Z,8.80
2023-04-02T01:33:12.427Z,8.88
2023-04-02T01:35:44.549Z,8.92
2023-04-02T01:38:23.990Z,8.96
2023-04-02T01:40:59.637Z,8.87
2023-04-02T01:43:40.649Z,8.95
2023-04-02T01:46:26.151Z,9.04
2023-04-02T01:48:54.009Z,9.10
2023-04-02T01:51:33.437Z,9.23
2023-04-02T01:54:03.721Z,9.05
2023-04-02T01:56:30.850Z,9.18
2023-04-02T01:58:58.442Z,9.11
2023-04-02T02:01:31.407Z,9.13
2023-04-02T02:03:57.944Z,9.26
2023-04-02T02:06:24.629Z,9.30
2023-04-02T02:09:03.488Z,9.32
2023-04-02T02:11:32.278Z,9.40
2023-04-02T02:14:00.313Z,9.29
2023-04-02T02:16:30.102Z,9.22
2023-04-02T02:19:01.687Z,9.16
2023-04-02T02:21:45.746Z,9.17
2023-04-02T02:24:20.770Z,8.96
2023-04-02T02:26:50.188Z,9.01
2023-04-02T02:29:20.086Z,8.95
2023-04-02T02:31:52.398Z,9.07
2023-04-02T02:34:24.935Z,9.12
2023-04-02T02:36:59.310Z,9.21
2023-04-02T02:39:34.829Z,9.06
2023-04-02T02:42:15.836Z,9.27
2023-04-02T02:44:47.262Z,9.30
2023-04-02T02:47:18.373Z,9.25
2023-04-02T02:49:51.322Z,9.40
2023-04-02T02:52:21.769Z,9.54
2023-04-02T02:54:56.540Z,9.41
2023-04-02T02:57:31.591Z,9.27
2023-04-02T03:00:01.002Z,9.41
2023-04-02T03:02:28.794Z,9.58
2023-04-02T03:04:56.530Z,9.59
2023-04-02T03:07:26.519Z,9.41
2023-04-02T03:10:21.354Z,9.64
2023-04-02T03:12:53.912Z,9.41
2023-04-02T03:15:27.919Z,9.11
2023-04-02T03:18:07.818Z,9.12
2023-04-02T03:20:56.753Z,9.22
2023-04-02T03:23:34.815Z,9.42
2023-04-02T03:26:17.895Z,9.44
2023-04-02T03:28:52.550Z,9.45
2023-04-02T03:31:18.881Z,9.41
2023-04-02T03:33:51.313Z,9.44
2023-04-02T03:36:32.166Z,9.57
2023-04-02T03:39:11.786Z,9.65
2023-04-02T03:41:50.450Z,9.68
2023-04-02T03:44:26.229Z,9.52
2023-04-02T03:46:57.645Z,9.57
2023-04-02T03:49:56.457Z,9.56
2023-04-02T03:52:28.308Z,9.64
2023-04-02T03:55:00.702Z,9.79
2023-04-02T03:57:38.648Z,9.68
2023-04-02T04:00:21.182Z,9.72
2023-04-02T04:02:52.536Z,9.65
2023-04-02T04:05:30.886Z,9.71
2023-04-02T04:08:03.370Z,9.75
2023-04-02T04:10:31.012Z,9.68
2023-04-02T04:13:05.316Z,9.75
2023-04-02T04:15:38.277Z,9.61
2023-04-02T04:18:34.829Z,9.71
2023-04-02T04:21:05.572Z,9.59
2023-04-02T04:23:36.948Z,9.65
2023-04-02T04:26:19.486Z,9.70
2023-04-02T04:29:12.403Z,9.70
2023-04-02T04:31:47.026Z,9.69
2023-04-02T04:34:16.414Z,9.52
2023-04-02T04:36:53.978Z,9.53
2023-04-02T04:39:35.490Z,9.48
2023-04-02T04:42:04.810Z,9.35
2023-04-02T04:44:51.247Z,9.22
2023-04-02T04:47:30.845Z,9.10
2023-04-02T04:50:03.825Z,8.85
2023-04-02T04:52:36.549Z,8.84
2023-04-02T04:55:04.490Z,8.83
2023-04-02T04:57:35.841Z,8.76
2023-04-02T05:00:25.061Z,8.89
2023-04-02T05:03:01.823Z,8.92
2023-04-02T05:05:33.681Z,8.92
2023-04-02T05:08:07.025Z,8.96
2023-04-02T05:10:55.997Z,8.98
2023-04-02T05:13:34.659Z,9.06
2023-04-02T05:16:40.769Z,9.03
2023-04-02T05:19:19.181Z,9.06
2023-04-02T05:22:23.303Z,9.16
2023-04-02T05:25:02.568Z,9.22
2023-04-02T05:27:36.275Z,9.28
2023-04-02T05:30:39.800Z,9.26
2023-04-02T05:33:20.129Z,9.29
2023-04-02T05:35:50.523Z,9.43
2023-04-02T05:38:29.131Z,9.51
2023-04-02T05:41:02.815Z,9.51
2023-04-02T05:43:33.864Z,9.65
2023-04-02T05:46:08.377Z,9.74
2023-04-02T05:48:40.950Z,9.83
2023-04-02T05:51:15.697Z,9.87
2023-04-02T05:53:49.796Z,9.86
2023-04-02T05:56:27.104Z,9.88
2023-04-02T05:59:02.745Z,9.92
2023-04-02T06:01:39.197Z,10.06
2023-04-02T06:04:19.857Z,10.03
2023-04-02T06:06:50.707Z,10.12
2023-04-02T06:09:42.497Z,10.19
2023-04-02T06:12:33.859Z,10.08
2023-04-02T06:15:00.342Z,10.27
2023-04-02T06:17:27.405Z,10.35
2023-04-02T06:19:57.720Z,10.44
2023-04-02T06:22:36.168Z,10.51
2023-04-02T06:25:15.840Z,10.60
2023-04-02T06:27:45.477Z,10.72
2023-04-02T06:30:23.716Z,10.77
2023-04-02T06:32:50.384Z,10.86
2023-04-02T06:35:17.207Z,10.93
2023-04-02T06:37:47.956Z,11.13
2023-04-02T06:40:46.211Z,10.95
2023-04-02T06:43:21.090Z,10.97
2023-04-02T06:45:52.019Z,11.17
2023-04-02T06:48:19.758Z,10.85
2023-04-02T06:50:54.507Z,11.12
2023-04-02T06:53:36.929Z,10.97
2023-04-02T06:56:19.961Z,11.31
2023-04-02T06:58:46.401Z,11.39
2023-04-02T07:01:19.676Z,11.44
2023-04-02T07:03:46.262Z,11.45
2023-04-02T07:06:19.047Z,11.52
2023-04-02T07:08:46.061Z,11.78
2023-04-02T07:11:20.625Z,12.06
2023-04-02T07:13:48.889Z,11.93
2023-04-02T07:16:18.877Z,11.98
2023-04-02T07:18:46.576Z,11.59
2023-04-02T07:21:12.938Z,11.47
2023-04-02T07:23:39.732Z,11.72
2023-04-02T07:26:07.973Z,11.78
2023-04-02T07:28:34.612Z,11.68
2023-04-02T07:31:01.267Z,11.52
2023-04-02T07:33:29.959Z,11.55
2023-04-02T07:35:57.657Z,11.44
2023-04-02T07:38:24.730Z,11.73
2023-04-02T07:40:51.131Z,11.82
2023-04-02T07:43:17.554Z,12.04
2023-04-02T07:45:44.180Z,12.09
2023-04-02T07:48:12.822Z,12.43
2023-04-02T07:50:39.720Z,12.58
2023-04-02T07:53:07.110Z,12.79
2023-04-02T07:55:33.840Z,12.88
2023-04-02T07:58:00.428Z,12.64
2023-04-02T08:00:28.951Z,12.02
2023-04-02T08:02:56.258Z,11.95
2023-04-02T08:05:23.132Z,12.50
2023-04-02T08:07:54.853Z,13.01
2023-04-02T08:10:21.795Z,13.45
2023-04-02T08:12:49.562Z,13.20
2023-04-02T08:15:16.296Z,12.94
2023-04-02T08:17:43.359Z,13.07
2023-04-02T08:20:21.388Z,13.46
2023-04-02T08:22:49.251Z,13.41
2023-04-02T08:25:16.368Z,13.70
2023-04-02T08:27:43.054Z,13.41
2023-04-02T08:30:12.702Z,13.12
2023-04-02T08:32:41.155Z,12.72
2023-04-02T08:35:12.487Z,11.99
2023-04-02T08:37:39.242Z,12.37
2023-04-02T08:40:10.087Z,12.89
2023-04-02T08:42:44.752Z,13.24
2023-04-02T08:45:24.352Z,12.80
2023-04-02T08:47:56.262Z,12.94
2023-04-02T08:50:32.797Z,12.51
2023-04-02T08:53:02.657Z,12.50
2023-04-02T08:55:51.076Z,12.80
2023-04-02T08:58:23.627Z,13.08
2023-04-02T09:00:54.287Z,13.41
2023-04-02T09:03:41.544Z,13.37
2023-04-02T09:06:13.464Z,13.57
2023-04-02T09:08:44.603Z,13.52
2023-04-02T09:11:38.411Z,13.88
2023-04-02T09:14:12.215Z,13.60
2023-04-02T09:16:42.472Z,13.48
2023-04-02T09:19:19.543Z,13.64
2023-04-02T09:21:56.977Z,13.90
2023-04-02T09:24:23.398Z,14.12
2023-04-02T09:26:49.800Z,14.57
2023-04-02T09:29:31.361Z,15.12
2023-04-02T09:32:09.995Z,15.49
2023-04-02T09:34:36.951Z,15.32
2023-04-02T09:37:25.392Z,15.16
2023-04-02T09:39:51.927Z,15.19
2023-04-02T09:42:36.259Z,15.35
2023-04-02T09:45:23.713Z,14.99
2023-04-02T09:47:52.346Z,14.62
2023-04-02T09:50:37.785Z,14.52
2023-04-02T09:53:39.066Z,14.59
2023-04-02T09:56:23.342Z,14.83
2023-04-02T09:59:18.338Z,15.34
2023-04-02T10:01:58.553Z,15.25
2023-04-02T10:04:47.463Z,14.98
2023-04-02T10:07:34.521Z,14.97
2023-04-02T10:10:25.252Z,15.27
2023-04-02T10:13:01.368Z,15.14
2023-04-02T10:15:35.286Z,15.38
2023-04-02T10:18:12.824Z,15.07
2023-04-02T10:20:50.827Z,15.44
2023-04-02T10:23:19.375Z,15.78
2023-04-02T10:25:59.986Z,15.83
2023-04-02T10:28:38.716Z,15.51
2023-04-02T10:31:26.110Z,15.85
2023-04-02T10:34:09.248Z,16.12
2023-04-02T10:36:48.228Z,16.33
2023-04-02T10:39:25.106Z,16.32
2023-04-02T10:42:11.097Z,16.66
2023-04-02T10:44:43.406Z,16.72
2023-04-02T10:47:33.246Z,16.76
2023-04-02T10:50:18.421Z,16.82
2023-04-02T10:53:14.524Z,17.15
2023-04-02T10:55:44.662Z,17.42
2023-04-02T10:58:23.288Z,17.49
2023-04-02T11:00:52.059Z,17.29
2023-04-02T11:03:29.781Z,16.41
2023-04-02T11:06:03.120Z,16.35
2023-04-02T11:08:44.656Z,16.57
2023-04-02T11:11:32.007Z,16.74
2023-04-02T11:14:22.449Z,17.07
2023-04-02T11:16:50.586Z,17.18
2023-04-02T11:19:16.956Z,17.15
2023-04-02T11:21:58.020Z,17.48
2023-04-02T11:24:36.785Z,18.06
2023-04-02T11:27:14.295Z,18.68
2023-04-02T11:30:25.524Z,18.80
2023-04-02T11:32:52.095Z,18.99
2023-04-02T11:35:27.881Z,18.35
2023-04-02T11:37:56.641Z,18.35
2023-04-02T11:40:45.048Z,18.65
2023-04-02T11:43:33.449Z,19.12
2023-04-02T11:46:01.133Z,19.35
2023-04-02T11:48:31.326Z,19.82
2023-04-02T11:50:57.998Z,20.32
2023-04-02T11:53:32.648Z,20.21
2023-04-02T11:56:08.534Z,20.04
2023-04-02T11:59:05.936Z,19.98
2023-04-02T12:01:59.845Z,19.56
2023-04-02T12:04:42.885Z,19.05
2023-04-02T12:07:34.873Z,18.02
2023-04-02T12:10:25.436Z,17.77
2023-04-02T12:12:52.008Z,17.52
2023-04-02T12:15:42.305Z,17.31
2023-04-02T12:18:16.491Z,16.88
2023-04-02T12:20:48.522Z,16.74
2023-04-02T12:23:21.323Z,16.35
2023-04-02T12:25:56.085Z,16.33
2023-04-02T12:28:23.167Z,15.88
2023-04-02T12:30:51.718Z,15.83
2023-04-02T12:33:37.058Z,15.60
2023-04-02T12:36:06.754Z,15.72
2023-04-02T12:38:39.098Z,15.58
2023-04-02T12:41:19.286Z,14.86
2023-04-02T12:43:46.097Z,14.66
2023-04-02T12:46:14.754Z,14.78
2023-04-02T12:48:41.221Z,14.58
2023-04-02T12:51:07.792Z,14.47
2023-04-02T12:53:37.684Z,14.52
2023-04-02T12:56:05.546Z,14.52
2023-04-02T12:58:39.090Z,14.72
2023-04-02T13:01:12.890Z,14.90
2023-04-02T13:03:39.479Z,15.00
2023-04-02T13:06:27.021Z,15.23
2023-04-02T13:08:54.927Z,15.19
2023-04-02T13:11:22.637Z,15.38
2023-04-02T13:13:50.348Z,15.73
2023-04-02T13:16:19.729Z,15.80
2023-04-02T13:18:48.724Z,15.88
2023-04-02T13:21:21.103Z,16.28
2023-04-02T13:23:47.876Z,16.43
2023-04-02T13:26:24.219Z,16.77
2023-04-02T13:29:01.372Z,17.08
2023-04-02T13:31:32.844Z,17.17
2023-04-02T13:33:59.579Z,17.43
2023-04-02T13:36:29.255Z,17.60
2023-04-02T13:38:56.162Z,17.69
2023-04-02T13:41:28.614Z,17.43
2023-04-02T13:43:57.335Z,17.15
2023-04-02T13:46:27.004Z,17.22
2023-04-02T13:48:55.033Z,16.68
2023-04-02T13:51:27.106Z,16.83
2023-04-02T13:53:57.145Z,17.09
2023-04-02T13:56:24.631Z,17.35
2023-04-02T13:58:51.894Z,17.47
2023-04-02T14:01:22.744Z,17.69
2023-04-02T14:03:49.827Z,17.81
2023-04-02T14:06:28.945Z,17.94
2023-04-02T14:09:07.747Z,17.91
2023-04-02T14:12:08.794Z,17.97
2023-04-02T14:14:57.379Z,17.24
2023-04-02T14:17:47.604Z,16.66
2023-04-02T14:20:38.070Z,16.01
2023-04-02T14:23:18.535Z,15.84
2023-04-02T14:26:06.800Z,16.03
2023-04-02T14:28:57.719Z,16.01
2023-04-02T14:31:51.511Z,15.70
2023-04-02T14:34:30.430Z,15.74
2023-04-02T14:37:23.089Z,15.83
2023-04-02T14:40:00.568Z,15.73
2023-04-02T14:42:29.926Z,15.79
2023-04-02T14:45:12.677Z,15.66
2023-04-02T14:47:43.781Z,15.56
2023-04-02T14:50:28.015Z,15.38
2023-04-02T14:53:00.581Z,15.46
2023-04-02T14:55:38.656Z,15.23
2023-04-02T14:58:15.167Z,15.20
2023-04-02T15:00:48.537Z,14.88
2023-04-02T15:03:21.384Z,14.74
2023-04-02T15:05:53.801Z,15.02
2023-04-02T15:08:29.865Z,15.02
2023-04-02T15:11:08.974Z,14.94
2023-04-02T15:13:38.560Z,14.87
2023-04-02T15:16:14.858Z,14.81
2023-04-02T15:18:41.388Z,14.82
2023-04-02T15:21:20.305Z,14.59
2023-04-02T15:23:52.745Z,14.61
2023-04-02T15:26:39.788Z,14.58
2023-04-02T15:29:34.220Z,14.38
2023-04-02T15:32:19.331Z,14.48
2023-04-02T15:35:24.805Z,14.46
2023-04-02T15:38:01.406Z,14.27
2023-04-02T15:40:45.389Z,13.80
2023-04-02T15:43:27.402Z,13.60
2023-04-02T15:46:19.022Z,13.53
2023-04-02T15:49:16.216Z,12.99
2023-04-02T15:52:07.244Z,13.17
2023-04-02T15:54:40.497Z,13.13
2023-04-02T15:57:45.893Z,12.83
2023-04-02T16:00:22.140Z,12.63
2023-04-02T16:03:12.699Z,12.71
2023-04-02T16:05:48.707Z,12.70
2023-04-02T16:08:27.321Z,12.80
2023-04-02T16:10:53.863Z,12.54
2023-04-02T16:13:33.309Z,12.58
2023-04-02T16:16:13.143Z,12.50
2023-04-02T16:19:16.171Z,12.40
2023-04-02T16:21:50.401Z,12.25
2023-04-02T16:24:17.103Z,12.34
2023-04-02T16:27:08.893Z,12.30
2023-04-02T16:29:58.994Z,11.98
2023-04-02T16:32:41.571Z,11.92
2023-04-02T16:35:43.214Z,11.72
2023-04-02T16:38:22.816Z,11.58
2023-04-02T16:41:16.861Z,11.43
2023-04-02T16:43:54.532Z,11.50
2023-04-02T16:46:40.585Z,11.56
2023-04-02T16:49:36.276Z,11.74
2023-04-02T16:52:42.954Z,11.11
2023-04-02T16:55:12.421Z,11.05
2023-04-02T16:57:55.516Z,11.18
2023-04-02T17:00:47.080Z,11.17
2023-04-02T17:03:18.228Z,11.28
2023-04-02T17:06:06.491Z,11.25
2023-04-02T17:09:01.625Z,11.42
2023-04-02T17:11:44.618Z,11.36
2023-04-02T17:14:25.810Z,11.02
2023-04-02T17:16:59.240Z,11.24
2023-04-02T17:19:28.381Z,11.26
2023-04-02T17:21:59.217Z,11.14
2023-04-02T17:24:31.330Z,11.11
2023-04-02T17:27:12.016Z,10.84
2023-04-02T17:29:42.510Z,10.37
2023-04-02T17:32:21.652Z,10.39
2023-04-02T17:34:48.457Z,10.28
2023-04-02T17:37:40.916Z,10.26
2023-04-02T17:40:36.429Z,10.31
2023-04-02T17:43:27.762Z,10.19
2023-04-02T17:46:04.452Z,10.17
2023-04-02T17:48:44.730Z,9.88
2023-04-02T17:51:16.261Z,9.79
2023-04-02T17:53:52.074Z,9.69
2023-04-02T17:56:26.658Z,9.59
2023-04-02T17:59:38.723Z,9.65
2023-04-02T18:02:43.239Z,9.70
2023-04-02T18:05:38.410Z,9.57
2023-04-02T18:08:18.641Z,9.81
2023-04-02T18:10:50.833Z,9.85
2023-04-02T18:13:32.611Z,9.89
2023-04-02T18:16:13.526Z,9.93
2023-04-02T18:19:05.868Z,10.07
2023-04-02T18:21:46.657Z,9.78
2023-04-02T18:24:39.225Z,9.47
2023-04-02T18:27:30.226Z,9.31
2023-04-02T18:30:11.385Z,9.56
2023-04-02T18:32:52.207Z,9.66
2023-04-02T18:35:31.176Z,9.85
2023-04-02T18:38:26.192Z,9.74
2023-04-02T18:41:29.131Z,9.42
2023-04-02T18:44:16.584Z,9.06
2023-04-02T18:46:50.482Z,9.35
2023-04-02T18:49:36.887Z,9.54
2023-04-02T18:52:12.096Z,9.17
2023-04-02T18:55:09.209Z,9.24
2023-04-02T18:57:39.834Z,9.12
2023-04-02T19:00:29.649Z,9.35
2023-04-02T19:03:19.337Z,9.16
2023-04-02T19:06:09.100Z,8.97
2023-04-02T19:08:50.871Z,8.78
2023-04-02T19:11:22.226Z,8.96
2023-04-02T19:13:51.233Z,8.96
2023-04-02T19:16:42.940Z,8.87
2023-04-02T19:19:15.110Z,9.07
2023-04-02T19:22:03.422Z,8.78
2023-04-02T19:24:44.668Z,8.88
2023-04-02T19:27:32.832Z,8.96
2023-04-02T19:30:17.933Z,9.05
2023-04-02T19:33:08.074Z,9.07
2023-04-02T19:35:58.582Z,9.07
2023-04-02T19:38:52.865Z,8.60
2023-04-02T19:41:31.385Z,8.54
2023-04-02T19:43:57.836Z,8.44
2023-04-02T19:46:26.492Z,8.41
2023-04-02T19:49:25.113Z,8.43
2023-04-02T19:51:51.835Z,8.39
2023-04-02T19:54:18.620Z,8.45
2023-04-02T19:56:45.388Z,8.12
2023-04-02T20:01:42.451Z,8.01
2023-04-02T20:04:09.260Z,7.78
2023-04-02T20:06:35.899Z,7.37
2023-04-02T20:09:02.395Z,7.45
2023-04-02T20:11:28.851Z,7.73
2023-04-02T20:13:55.381Z,7.57
2023-04-02T20:16:22.756Z,7.62
2023-04-02T20:18:49.965Z,7.68
2023-04-02T20:21:16.623Z,7.35
2023-04-02T20:23:43.071Z,7.10
2023-04-02T20:26:09.605Z,7.43
2023-04-02T20:28:36.053Z,7.69
2023-04-02T20:31:14.610Z,7.78
2023-04-02T20:33:42.122Z,7.77
2023-04-02T20:36:12.785Z,7.65
2023-04-02T20:38:39.880Z,7.57
2023-04-02T20:41:07.663Z,7.40
2023-04-02T20:43:34.709Z,7.22
2023-04-02T20:46:04.556Z,7.20
2023-04-02T20:48:32.342Z,7.19
2023-04-02T20:51:00.715Z,7.26
2023-04-02T20:53:29.831Z,7.33
2023-04-02T20:56:13.763Z,7.33
2023-04-02T20:58:40.904Z,7.26
2023-04-02T21:01:16.738Z,7.09
2023-04-02T21:03:43.666Z,6.92
2023-04-02T21:06:17.126Z,6.89
2023-04-02T21:08:43.934Z,6.92
2023-04-02T21:11:10.801Z,6.80
2023-04-02T21:13:37.801Z,6.81
2023-04-02T21:16:05.884Z,6.83
2023-04-02T21:18:32.264Z,6.81
2023-04-02T21:21:06.022Z,6.80
2023-04-02T21:23:32.781Z,6.87
2023-04-02T21:26:06.120Z,6.61
2023-04-02T21:28:35.779Z,6.67
2023-04-02T21:31:10.546Z,6.35
2023-04-02T21:33:45.200Z,6.39
2023-04-02T21:36:18.316Z,6.36
2023-04-02T21:38:47.017Z,5.79
2023-04-02T21:41:17.597Z,5.64
2023-04-02T21:43:46.042Z,6.05
2023-04-02T21:46:12.544Z,6.35
2023-04-02T21:48:40.589Z,6.34
2023-04-02T21:51:07.909Z,6.42
2023-04-02T21:53:34.285Z,6.58
2023-04-02T21:56:06.215Z,6.76
2023-04-02T21:58:32.999Z,6.72
2023-04-02T22:01:00.603Z,6.72
2023-04-02T22:03:31.726Z,6.74
2023-04-02T22:06:12.206Z,6.86
2023-04-02T22:08:40.925Z,6.88
2023-04-02T22:11:15.765Z,6.87
2023-04-02T22:13:42.764Z,6.88
2023-04-02T22:16:14.832Z,6.93
2023-04-02T22:18:42.834Z,6.92
2023-04-02T22:21:10.496Z,6.86
2023-04-02T22:23:37.807Z,6.83
2023-04-02T22:26:06.500Z,6.67
2023-04-02T22:28:34.043Z,6.85
2023-04-02T22:31:07.172Z,6.80
2023-04-02T22:33:34.555Z,6.79
2023-04-02T22:36:01.495Z,6.89
2023-04-02T22:38:28.610Z,6.87
2023-04-02T22:41:13.961Z,6.72
2023-04-02T22:43:42.816Z,6.69
2023-04-02T22:46:10.522Z,6.71
2023-04-02T22:48:39.731Z,6.71
2023-04-02T22:51:07.779Z,6.64
2023-04-02T22:53:36.492Z,6.42
2023-04-02T22:56:07.843Z,6.62
2023-04-02T22:58:35.229Z,6.49
2023-04-02T23:01:13.418Z,6.56
2023-04-02T23:03:40.139Z,6.59
2023-04-02T23:06:09.623Z,6.54
2023-04-02T23:08:36.962Z,6.56
2023-04-02T23:11:19.576Z,6.40
2023-04-02T23:13:47.944Z,6.44
2023-04-02T23:16:15.865Z,6.42
2023-04-02T23:18:43.246Z,6.26
2023-04-02T23:21:10.572Z,6.16
2023-04-02T23:23:37.248Z,6.21
2023-04-02T23:26:06.171Z,6.26
2023-04-02T23:28:32.730Z,6.22
2023-04-02T23:31:00.815Z,6.37
2023-04-02T23:33:27.291Z,6.40
2023-04-02T23:35:53.859Z,6.14
2023-04-02T23:38:20.371Z,6.13
2023-04-02T23:40:46.861Z,5.78
2023-04-02T23:43:13.377Z,6.12
2023-04-02T23:45:39.875Z,6.20
2023-04-02T23:48:06.451Z,6.29
2023-04-02T23:50:33.010Z,6.19
2023-04-02T23:52:59.412Z,6.00
2023-04-02T23:55:25.928Z,5.93
2023-04-02T23:57:52.378Z,5.73
